createdAt,value
2018-11-14T00:00:23.078Z,93.60
2018-11-14T00:01:23.065Z,93.96
2018-11-14T00:02:23.066Z,93.85
2018-11-14T00:03:23.080Z,94.06
2018-11-14T00:04:23.037Z,94.06
2018-11-14T00:05:23.022Z,93.54
2018-11-14T00:06:23.014Z,93.50
2018-11-14T00:07:23.013Z,94.12
2018-11-14T00:08:22.991Z,93.30
2018-11-14T00:09:23.073Z,93.19
2018-11-14T00:10:22.978Z,93.19
2018-11-14T00:11:22.958Z,92.78
2018-11-14T00:12:22.963Z,93.03
2018-11-14T00:13:22.935Z,93.75
2018-11-14T00:14:22.930Z,93.30
2018-11-14T00:15:22.973Z,93.30
2018-11-14T00:16:22.912Z,94.12
2018-11-14T00:17:22.962Z,93.34
2018-11-14T00:18:22.885Z,93.24
2018-11-14T00:19:22.880Z,94.06
2018-11-14T00:20:22.863Z,93.75
2018-11-14T00:21:22.892Z,93.69
2018-11-14T00:22:22.859Z,94.10
2018-11-14T00:23:22.835Z,93.85
2018-11-14T00:24:22.846Z,93.65
2018-11-14T00:25:22.819Z,93.96
2018-11-14T00:26:22.800Z,93.65
2018-11-14T00:27:22.845Z,93.96
2018-11-14T00:28:22.777Z,93.90
2018-11-14T00:29:22.822Z,94.00
2018-11-14T00:30:22.757Z,94.17
2018-11-14T00:31:22.745Z,94.21
2018-11-14T00:32:22.766Z,93.90
2018-11-14T00:33:22.768Z,94.00
2018-11-14T00:34:22.729Z,93.96
2018-11-14T00:35:22.706Z,94.21
2018-11-14T00:36:22.692Z,93.90
2018-11-14T00:37:22.699Z,93.79
2018-11-14T00:38:22.672Z,93.69
2018-11-14T00:39:22.698Z,94.10
2018-11-14T00:40:22.648Z,94.31
2018-11-14T00:41:22.639Z,94.42
2018-11-14T00:42:22.646Z,94.42
2018-11-14T00:43:22.618Z,94.10
2018-11-14T00:44:22.607Z,94.00
2018-11-14T00:45:22.628Z,94.21
2018-11-14T00:46:22.588Z,93.90
2018-11-14T00:47:22.588Z,93.59
2018-11-14T00:48:22.563Z,94.10
2018-11-14T00:49:22.555Z,93.94
2018-11-14T00:50:22.546Z,94.15
2018-11-14T00:51:22.572Z,94.15
2018-11-14T00:52:22.535Z,94.15
2018-11-14T00:53:22.511Z,94.42
2018-11-14T00:54:22.497Z,94.67
2018-11-14T00:55:22.490Z,94.31
2018-11-14T00:56:22.483Z,93.90
2018-11-14T00:57:22.535Z,93.79
2018-11-14T00:58:22.456Z,93.69
2018-11-14T00:59:22.449Z,93.90
2018-11-14T01:00:22.436Z,93.49
2018-11-14T01:01:22.429Z,93.79
2018-11-14T01:02:22.428Z,93.18
2018-11-14T01:03:22.457Z,93.38
2018-11-14T01:04:22.396Z,92.76
2018-11-14T01:05:22.398Z,92.97
2018-11-14T01:06:22.374Z,93.07
2018-11-14T01:07:22.372Z,93.07
2018-11-14T01:08:22.357Z,92.97
2018-11-14T01:09:22.378Z,93.63
2018-11-14T01:10:22.329Z,93.43
2018-11-14T01:11:22.317Z,93.79
2018-11-14T01:12:22.323Z,93.73
2018-11-14T01:13:22.359Z,93.98
2018-11-14T01:14:22.287Z,92.64
2018-11-14T01:15:22.287Z,93.20
2018-11-14T01:16:22.281Z,93.10
2018-11-14T01:17:22.337Z,93.87
2018-11-14T01:18:22.246Z,94.32
2018-11-14T01:19:22.236Z,94.68
2018-11-14T01:20:22.224Z,94.06
2018-11-14T01:21:22.233Z,93.37
2018-11-14T01:22:22.214Z,94.14
2018-11-14T01:23:22.188Z,94.87
2018-11-14T01:24:22.178Z,94.81
2018-11-14T01:25:22.173Z,95.16
2018-11-14T01:26:22.162Z,95.68
2018-11-14T01:27:22.243Z,95.41
2018-11-14T01:28:22.140Z,95.83
2018-11-14T01:29:22.124Z,96.14
2018-11-14T01:30:22.113Z,96.70
2018-11-14T01:31:22.115Z,96.33
2018-11-14T01:32:22.108Z,96.48
2018-11-14T01:33:22.118Z,98.10
2018-11-14T01:34:22.073Z,99.13
2018-11-14T01:35:22.064Z,99.51
2018-11-14T01:36:22.055Z,99.87
2018-11-14T01:37:22.069Z,99.46
2018-11-14T01:38:22.033Z,99.56
2018-11-14T01:39:22.059Z,99.51
2018-11-14T01:40:22.014Z,99.99
2018-11-14T01:41:22.005Z,99.99
2018-11-14T01:42:22.001Z,99.99
2018-11-14T01:43:21.977Z,99.99
2018-11-14T01:44:21.967Z,99.69
2018-11-14T01:45:22.011Z,99.79
2018-11-14T01:46:21.946Z,99.48
2018-11-14T01:47:21.941Z,99.48
2018-11-14T01:48:21.944Z,99.64
2018-11-14T01:49:21.919Z,99.23
2018-11-14T01:50:21.918Z,98.82
2018-11-14T01:51:21.931Z,99.23
2018-11-14T01:52:21.883Z,98.82
2018-11-14T01:53:21.892Z,99.23
2018-11-14T01:54:21.871Z,98.82
2018-11-14T01:55:21.853Z,99.13
2018-11-14T01:56:21.845Z,99.08
2018-11-14T01:57:21.896Z,98.35
2018-11-14T01:58:21.842Z,98.50
2018-11-14T01:59:21.813Z,98.15
2018-11-14T02:00:21.805Z,97.63
2018-11-14T02:01:21.802Z,97.59
2018-11-14T02:02:21.792Z,97.17
2018-11-14T02:03:21.817Z,96.86
2018-11-14T02:04:21.757Z,96.34
2018-11-14T02:05:21.748Z,96.14
2018-11-14T02:06:21.738Z,96.76
2018-11-14T02:07:21.727Z,96.34
2018-11-14T02:08:21.731Z,96.24
2018-11-14T02:09:21.750Z,96.03
2018-11-14T02:10:21.700Z,95.31
2018-11-14T02:11:21.685Z,95.37
2018-11-14T02:12:21.674Z,95.42
2018-11-14T02:13:21.675Z,95.31
2018-11-14T02:14:21.658Z,95.73
2018-11-14T02:15:21.686Z,95.31
2018-11-14T02:16:21.634Z,95.42
2018-11-14T02:17:21.625Z,95.21
2018-11-14T02:18:21.623Z,95.27
2018-11-14T02:19:21.600Z,95.10
2018-11-14T02:20:21.590Z,94.65
2018-11-14T02:21:21.633Z,95.31
2018-11-14T02:22:21.569Z,95.00
2018-11-14T02:23:21.575Z,94.90
2018-11-14T02:24:21.554Z,95.00
2018-11-14T02:25:21.540Z,95.10
2018-11-14T02:26:21.530Z,95.31
2018-11-14T02:27:21.568Z,95.31
2018-11-14T02:28:21.522Z,95.25
2018-11-14T02:29:21.506Z,95.71
2018-11-14T02:30:21.487Z,95.98
2018-11-14T02:31:21.475Z,95.87
2018-11-14T02:32:21.463Z,95.83
2018-11-14T02:33:21.508Z,95.83
2018-11-14T02:34:21.440Z,95.62
2018-11-14T02:35:21.433Z,95.56
2018-11-14T02:36:21.422Z,95.25
2018-11-14T02:37:21.412Z,95.98
2018-11-14T02:38:21.417Z,96.08
2018-11-14T02:39:21.433Z,96.49
2018-11-14T02:40:21.387Z,96.39
2018-11-14T02:41:21.370Z,96.03
2018-11-14T02:42:21.362Z,96.24
2018-11-14T02:43:21.361Z,95.52
2018-11-14T02:44:21.342Z,95.87
2018-11-14T02:45:21.381Z,95.52
2018-11-14T02:46:21.317Z,95.31
2018-11-14T02:47:21.308Z,95.31
2018-11-14T02:48:21.315Z,95.17
2018-11-14T02:49:21.290Z,94.44
2018-11-14T02:50:21.276Z,94.75
2018-11-14T02:51:21.301Z,94.03
2018-11-14T02:52:21.287Z,94.03
2018-11-14T02:53:21.261Z,94.23
2018-11-14T02:54:21.268Z,94.13
2018-11-14T02:55:21.223Z,94.34
2018-11-14T02:56:21.212Z,94.03
2018-11-14T02:57:21.255Z,94.03
2018-11-14T02:58:21.204Z,94.34
2018-11-14T02:59:21.179Z,94.44
2018-11-14T03:00:21.168Z,94.59
2018-11-14T03:01:21.158Z,94.13
2018-11-14T03:02:21.146Z,94.13
2018-11-14T03:03:21.201Z,93.72
2018-11-14T03:04:21.129Z,93.93
2018-11-14T03:05:21.121Z,94.13
2018-11-14T03:06:21.107Z,93.87
2018-11-14T03:07:21.100Z,94.38
2018-11-14T03:08:21.098Z,94.59
2018-11-14T03:09:21.115Z,94.79
2018-11-14T03:10:21.062Z,94.28
2018-11-14T03:11:21.054Z,94.48
2018-11-14T03:12:21.166Z,94.69
2018-11-14T03:13:21.046Z,94.69
2018-11-14T03:14:21.024Z,94.59
2018-11-14T03:15:21.047Z,94.69
2018-11-14T03:16:21.000Z,95.36
2018-11-14T03:17:20.989Z,95.04
2018-11-14T03:18:20.991Z,95.04
2018-11-14T03:19:20.968Z,95.50
2018-11-14T03:20:20.956Z,95.92
2018-11-14T03:21:20.996Z,96.02
2018-11-14T03:22:20.938Z,95.40
2018-11-14T03:23:20.944Z,95.50
2018-11-14T03:24:20.916Z,95.81
2018-11-14T03:25:20.916Z,96.12
2018-11-14T03:26:20.931Z,96.95
2018-11-14T03:27:20.938Z,96.64
2018-11-14T03:28:20.890Z,96.85
2018-11-14T03:29:20.863Z,96.85
2018-11-14T03:30:20.856Z,96.95
2018-11-14T03:31:20.844Z,96.59
2018-11-14T03:32:20.833Z,96.08
2018-11-14T03:33:21.307Z,95.25
2018-11-14T03:34:20.816Z,95.67
2018-11-14T03:35:20.803Z,95.15
2018-11-14T03:36:20.793Z,95.15
2018-11-14T03:37:20.784Z,94.94
2018-11-14T03:38:20.794Z,95.36
2018-11-14T03:39:20.847Z,95.36
2018-11-14T03:40:20.756Z,95.04
2018-11-14T03:41:20.737Z,95.46
2018-11-14T03:42:20.730Z,95.56
2018-11-14T03:43:20.719Z,95.71
2018-11-14T03:44:20.719Z,94.94
2018-11-14T03:45:20.720Z,95.50
2018-11-14T03:46:20.691Z,95.50
2018-11-14T03:47:20.677Z,95.92
2018-11-14T03:48:20.667Z,95.92
2018-11-14T03:49:20.669Z,95.40
2018-11-14T03:50:20.648Z,96.02
2018-11-14T03:51:20.698Z,96.44
2018-11-14T03:52:20.621Z,96.54
2018-11-14T03:53:20.613Z,95.77
2018-11-14T03:54:20.619Z,95.77
2018-11-14T03:55:20.592Z,95.21
2018-11-14T03:56:20.583Z,95.10
2018-11-14T03:57:20.619Z,94.38
2018-11-14T03:58:20.614Z,94.79
2018-11-14T03:59:20.566Z,94.48
2018-11-14T04:00:20.541Z,94.43
2018-11-14T04:01:20.542Z,94.63
2018-11-14T04:02:20.519Z,94.73
2018-11-14T04:03:20.547Z,94.48
2018-11-14T04:04:20.513Z,94.79
2018-11-14T04:05:20.551Z,94.59
2018-11-14T04:06:20.480Z,94.59
2018-11-14T04:07:20.470Z,94.28
2018-11-14T04:08:20.456Z,93.87
2018-11-14T04:09:20.575Z,94.07
2018-11-14T04:10:20.434Z,94.07
2018-11-14T04:11:20.428Z,94.28
2018-11-14T04:12:20.467Z,94.28
2018-11-14T04:13:20.402Z,93.97
2018-11-14T04:14:20.409Z,94.59
2018-11-14T04:15:20.431Z,94.07
2018-11-14T04:16:20.369Z,94.07
2018-11-14T04:17:20.361Z,93.97
2018-11-14T04:18:20.352Z,93.87
2018-11-14T04:19:20.360Z,93.87
2018-11-14T04:20:20.328Z,94.18
2018-11-14T04:21:20.336Z,93.87
2018-11-14T04:22:20.307Z,93.55
2018-11-14T04:23:20.302Z,93.76
2018-11-14T04:24:20.299Z,93.97
2018-11-14T04:25:20.276Z,94.38
2018-11-14T04:26:20.268Z,93.97
2018-11-14T04:27:20.279Z,93.80
2018-11-14T04:28:20.248Z,94.12
2018-11-14T04:29:20.249Z,94.22
2018-11-14T04:30:20.229Z,94.32
2018-11-14T04:31:20.218Z,94.73
2018-11-14T04:32:20.204Z,94.63
2018-11-14T04:33:20.197Z,94.43
2018-11-14T04:34:20.243Z,94.73
2018-11-14T04:35:20.171Z,94.12
2018-11-14T04:36:20.177Z,94.63
2018-11-14T04:37:20.150Z,94.38
2018-11-14T04:38:20.142Z,94.59
2018-11-14T04:39:20.146Z,94.63
2018-11-14T04:40:20.153Z,94.63
2018-11-14T04:41:20.113Z,94.84
2018-11-14T04:42:20.098Z,94.38
2018-11-14T04:43:20.089Z,94.59
2018-11-14T04:44:20.094Z,94.69
2018-11-14T04:45:20.067Z,94.32
2018-11-14T04:46:20.122Z,94.63
2018-11-14T04:47:20.052Z,94.32
2018-11-14T04:48:20.040Z,94.63
2018-11-14T04:49:20.039Z,94.43
2018-11-14T04:50:20.025Z,94.28
2018-11-14T04:51:20.005Z,93.87
2018-11-14T04:52:20.031Z,94.07
2018-11-14T04:53:19.988Z,94.28
2018-11-14T04:54:19.996Z,93.14
2018-11-14T04:55:19.963Z,93.87
2018-11-14T04:56:19.955Z,93.80
2018-11-14T04:57:19.941Z,93.91
2018-11-14T04:58:19.965Z,93.80
2018-11-14T04:59:19.935Z,94.63
2018-11-14T05:00:19.909Z,94.53
2018-11-14T05:01:19.899Z,94.47
2018-11-14T05:02:19.920Z,94.57
2018-11-14T05:03:19.884Z,94.68
2018-11-14T05:04:19.915Z,94.78
2018-11-14T05:05:19.864Z,94.68
2018-11-14T05:06:19.849Z,94.37
2018-11-14T05:07:19.841Z,94.47
2018-11-14T05:08:19.832Z,95.09
2018-11-14T05:09:19.831Z,95.19
2018-11-14T05:10:19.851Z,95.29
2018-11-14T05:11:19.796Z,95.40
2018-11-14T05:12:19.786Z,95.03
2018-11-14T05:13:19.773Z,95.19
2018-11-14T05:14:19.788Z,95.50
2018-11-14T05:15:19.764Z,94.57
2018-11-14T05:16:19.798Z,94.68
2018-11-14T05:17:19.735Z,94.57
2018-11-14T05:18:19.722Z,94.68
2018-11-14T05:19:19.725Z,94.47
2018-11-14T05:20:19.713Z,94.47
2018-11-14T05:21:19.690Z,94.78
2018-11-14T05:22:19.723Z,94.98
2018-11-14T05:23:19.673Z,95.09
2018-11-14T05:24:19.752Z,95.24
2018-11-14T05:25:19.652Z,94.62
2018-11-14T05:26:19.638Z,95.24
2018-11-14T05:27:19.631Z,95.59
2018-11-14T05:28:19.659Z,95.49
2018-11-14T05:29:19.627Z,95.80
2018-11-14T05:30:19.595Z,96.52
2018-11-14T05:31:19.595Z,97.04
2018-11-14T05:32:19.576Z,96.83
2018-11-14T05:33:19.566Z,96.62
2018-11-14T05:34:19.567Z,96.52
2018-11-14T05:35:19.588Z,96.52
2018-11-14T05:36:19.538Z,96.62
2018-11-14T05:37:19.523Z,96.62
2018-11-14T05:38:19.515Z,96.62
2018-11-14T05:39:19.516Z,96.31
2018-11-14T05:40:19.604Z,96.11
2018-11-14T05:41:19.510Z,96.21
2018-11-14T05:42:19.471Z,96.15
2018-11-14T05:43:19.462Z,96.57
2018-11-14T05:44:19.464Z,96.26
2018-11-14T05:45:19.503Z,96.36
2018-11-14T05:46:19.431Z,97.19
2018-11-14T05:47:19.454Z,96.88
2018-11-14T05:48:19.409Z,96.82
2018-11-14T05:49:19.415Z,96.67
2018-11-14T05:50:19.385Z,97.03
2018-11-14T05:51:19.376Z,97.03
2018-11-14T05:52:19.364Z,96.82
2018-11-14T05:53:19.380Z,97.28
2018-11-14T05:54:19.359Z,96.66
2018-11-14T05:55:19.334Z,96.66
2018-11-14T05:56:19.324Z,97.07
2018-11-14T05:57:19.315Z,97.33
2018-11-14T05:58:19.302Z,96.81
2018-11-14T05:59:19.323Z,96.75
2018-11-14T06:00:19.283Z,96.48
2018-11-14T06:01:19.272Z,96.83
2018-11-14T06:02:19.262Z,96.73
2018-11-14T06:03:19.257Z,96.88
2018-11-14T06:04:19.262Z,96.98
2018-11-14T06:05:19.303Z,96.92
2018-11-14T06:06:19.219Z,97.55
2018-11-14T06:07:19.317Z,97.55
2018-11-14T06:08:19.198Z,97.86
2018-11-14T06:09:19.186Z,98.27
2018-11-14T06:10:19.192Z,98.43
2018-11-14T06:11:19.216Z,98.32
2018-11-14T06:12:19.156Z,99.26
2018-11-14T06:13:19.144Z,99.67
2018-11-14T06:14:19.145Z,99.36
2018-11-14T06:15:19.303Z,99.30
2018-11-14T06:16:19.120Z,99.46
2018-11-14T06:17:19.167Z,99.62
2018-11-14T06:18:19.095Z,99.55
2018-11-14T06:19:19.082Z,99.41
2018-11-14T06:20:19.090Z,99.24
2018-11-14T06:21:19.063Z,99.71
2018-11-14T06:22:19.063Z,99.40
2018-11-14T06:23:19.082Z,99.29
2018-11-14T06:24:19.034Z,99.40
2018-11-14T06:25:19.033Z,99.23
2018-11-14T06:26:19.009Z,99.33
2018-11-14T06:27:19.001Z,98.71
2018-11-14T06:28:18.994Z,99.54
2018-11-14T06:29:19.007Z,99.23
2018-11-14T06:30:18.980Z,99.65
2018-11-14T06:31:18.959Z,99.54
2018-11-14T06:32:18.946Z,99.71
2018-11-14T06:33:18.937Z,99.99
2018-11-14T06:34:18.923Z,99.71
2018-11-14T06:35:18.986Z,99.91
2018-11-14T06:36:18.908Z,99.91
2018-11-14T06:37:18.893Z,99.99
2018-11-14T06:38:18.887Z,99.99
2018-11-14T06:39:18.871Z,99.99
2018-11-14T06:40:18.886Z,99.99
2018-11-14T06:41:18.904Z,99.99
2018-11-14T06:42:18.838Z,99.99
2018-11-14T06:43:18.829Z,99.99
2018-11-14T06:44:18.825Z,99.99
2018-11-14T06:45:18.807Z,99.99
2018-11-14T06:46:18.812Z,99.99
2018-11-14T06:47:18.833Z,99.99
2018-11-14T06:48:18.778Z,99.99
2018-11-14T06:49:18.773Z,99.99
2018-11-14T06:50:18.755Z,99.99
2018-11-14T06:51:18.762Z,99.99
2018-11-14T06:52:18.735Z,99.99
2018-11-14T06:53:18.755Z,99.99
2018-11-14T06:54:18.713Z,99.99
2018-11-14T06:55:18.705Z,99.99
2018-11-14T06:56:18.704Z,99.99
2018-11-14T06:57:18.685Z,99.99
2018-11-14T06:58:18.676Z,99.99
2018-11-14T06:59:18.848Z,99.99
2018-11-14T07:00:18.654Z,99.99
2018-11-14T07:01:18.659Z,99.68
2018-11-14T07:02:18.632Z,99.99
2018-11-14T07:03:18.637Z,99.99
2018-11-14T07:04:18.613Z,99.99
2018-11-14T07:05:18.819Z,99.85
2018-11-14T07:06:18.699Z,99.59
2018-11-14T07:07:18.576Z,99.59
2018-11-14T07:08:18.570Z,99.59
2018-11-14T07:09:18.566Z,99.70
2018-11-14T07:10:18.550Z,99.28
2018-11-14T07:11:18.595Z,99.99
2018-11-14T07:12:18.524Z,99.44
2018-11-14T07:13:18.517Z,99.65
2018-11-14T07:14:18.503Z,99.61
2018-11-14T07:15:18.495Z,99.19
2018-11-14T07:16:18.493Z,98.88
2018-11-14T07:17:18.518Z,99.15
2018-11-14T07:18:18.477Z,98.73
2018-11-14T07:19:18.452Z,98.64
2018-11-14T07:20:18.441Z,97.87
2018-11-14T07:21:18.443Z,96.48
2018-11-14T07:22:18.420Z,95.03
2018-11-14T07:23:18.435Z,94.41
2018-11-14T07:24:18.412Z,93.02
2018-11-14T07:25:18.387Z,92.91
2018-11-14T07:26:18.392Z,92.50
2018-11-14T07:27:18.367Z,92.36
2018-11-14T07:28:18.356Z,93.08
2018-11-14T07:29:18.387Z,92.93
2018-11-14T07:30:18.334Z,93.97
2018-11-14T07:31:18.337Z,92.72
2018-11-14T07:32:18.428Z,92.68
2018-11-14T07:33:18.302Z,89.50
2018-11-14T07:34:18.295Z,88.39
2018-11-14T07:35:18.336Z,87.07
2018-11-14T07:36:18.287Z,85.03
2018-11-14T07:37:18.261Z,86.33
2018-11-14T07:38:18.250Z,85.96
2018-11-14T07:39:18.238Z,86.16
2018-11-14T07:40:18.232Z,85.55
2018-11-14T07:41:18.263Z,85.75
2018-11-14T07:42:18.207Z,86.55
2018-11-14T07:43:18.196Z,87.29
2018-11-14T07:44:18.188Z,89.40
2018-11-14T07:45:18.176Z,91.34
2018-11-14T07:46:18.176Z,91.17
2018-11-14T07:47:18.193Z,91.49
2018-11-14T07:48:18.142Z,92.50
2018-11-14T07:49:18.131Z,93.02
2018-11-14T07:50:18.150Z,93.23
2018-11-14T07:51:18.125Z,93.64
2018-11-14T07:52:18.101Z,93.95
2018-11-14T07:53:18.139Z,94.16
2018-11-14T07:54:18.081Z,94.16
2018-11-14T07:55:18.073Z,93.80
2018-11-14T07:56:18.070Z,93.29
2018-11-14T07:57:18.047Z,92.46
2018-11-14T07:58:18.047Z,92.32
2018-11-14T07:59:18.027Z,92.58
2018-11-14T08:00:18.062Z,91.16
2018-11-14T08:01:18.025Z,89.87
2018-11-14T08:02:18.135Z,89.19
2018-11-14T08:03:17.983Z,89.34
2018-11-14T08:04:17.973Z,89.75
2018-11-14T08:05:17.963Z,90.00
2018-11-14T08:06:18.018Z,90.16
2018-11-14T08:07:17.959Z,89.59
2018-11-14T08:08:18.066Z,89.79
2018-11-14T08:09:17.919Z,89.69
2018-11-14T08:10:17.907Z,89.94
2018-11-14T08:11:17.897Z,91.16
2018-11-14T08:12:17.954Z,92.30
2018-11-14T08:13:17.874Z,92.30
2018-11-14T08:14:17.867Z,93.12
2018-11-14T08:15:17.854Z,93.43
2018-11-14T08:16:17.850Z,94.26
2018-11-14T08:17:17.848Z,94.16
2018-11-14T08:18:17.893Z,94.37
2018-11-14T08:19:17.811Z,94.57
2018-11-14T08:20:17.800Z,94.22
2018-11-14T08:21:17.794Z,93.70
2018-11-14T08:22:17.796Z,93.91
2018-11-14T08:23:17.768Z,93.18
2018-11-14T08:24:17.787Z,93.24
2018-11-14T08:25:17.749Z,92.93
2018-11-14T08:26:17.739Z,92.72
2018-11-14T08:27:17.739Z,92.48
2018-11-14T08:28:17.716Z,92.58
2018-11-14T08:29:17.708Z,91.65
2018-11-14T08:30:17.737Z,92.27
2018-11-14T08:31:17.685Z,92.68
2018-11-14T08:32:17.685Z,92.07
2018-11-14T08:33:17.663Z,92.27
2018-11-14T08:34:17.651Z,92.74
2018-11-14T08:35:17.639Z,92.74
2018-11-14T08:36:17.716Z,92.02
2018-11-14T08:37:17.634Z,92.29
2018-11-14T08:38:17.610Z,92.04
2018-11-14T08:39:17.624Z,92.04
2018-11-14T08:40:17.588Z,90.39
2018-11-14T08:41:17.577Z,91.16
2018-11-14T08:42:17.619Z,91.16
2018-11-14T08:43:17.556Z,91.56
2018-11-14T08:44:17.551Z,91.77
2018-11-14T08:45:17.538Z,92.33
2018-11-14T08:46:17.524Z,92.33
2018-11-14T08:47:17.529Z,93.47
2018-11-14T08:48:17.547Z,94.29
2018-11-14T08:49:17.493Z,93.88
2018-11-14T08:50:17.554Z,93.73
2018-11-14T08:51:17.474Z,93.16
2018-11-14T08:52:17.474Z,94.50
2018-11-14T08:53:17.450Z,94.65
2018-11-14T08:54:17.478Z,94.96
2018-11-14T08:55:17.431Z,95.99
2018-11-14T08:56:17.419Z,95.27
2018-11-14T08:57:17.429Z,95.27
2018-11-14T08:58:17.399Z,95.37
2018-11-14T08:59:17.388Z,95.27
2018-11-14T09:00:17.399Z,95.17
2018-11-14T09:01:17.366Z,94.23
2018-11-14T09:02:17.379Z,94.48
2018-11-14T09:03:17.347Z,95.10
2018-11-14T09:04:17.334Z,95.52
2018-11-14T09:05:17.323Z,96.19
2018-11-14T09:06:17.427Z,96.70
2018-11-14T09:07:17.328Z,96.80
2018-11-14T09:08:17.291Z,97.49
2018-11-14T09:09:17.280Z,96.49
2018-11-14T09:10:17.271Z,96.44
2018-11-14T09:11:17.389Z,97.63
2018-11-14T09:12:17.360Z,97.69
2018-11-14T09:13:17.251Z,97.69
2018-11-14T09:14:17.235Z,97.59
2018-11-14T09:15:17.220Z,97.07
2018-11-14T09:16:17.206Z,96.76
2018-11-14T09:17:17.195Z,97.44
2018-11-14T09:18:17.266Z,97.33
2018-11-14T09:19:17.177Z,97.29
2018-11-14T09:20:17.162Z,96.61
2018-11-14T09:21:17.153Z,96.30
2018-11-14T09:22:17.143Z,96.30
2018-11-14T09:23:17.144Z,96.20
2018-11-14T09:24:17.152Z,96.30
2018-11-14T09:25:17.115Z,95.48
2018-11-14T09:26:17.099Z,96.34
2018-11-14T09:27:17.096Z,96.51
2018-11-14T09:28:17.095Z,96.72
2018-11-14T09:29:17.070Z,96.30
2018-11-14T09:30:17.102Z,96.41
2018-11-14T09:31:17.051Z,96.41
2018-11-14T09:32:17.039Z,96.72
2018-11-14T09:33:17.106Z,96.72
2018-11-14T09:34:17.018Z,96.92
2018-11-14T09:35:17.006Z,96.77
2018-11-14T09:36:17.024Z,96.56
2018-11-14T09:37:16.987Z,96.56
2018-11-14T09:38:16.997Z,95.95
2018-11-14T09:39:16.962Z,96.31
2018-11-14T09:40:16.951Z,95.90
2018-11-14T09:41:16.965Z,95.02
2018-11-14T09:42:16.957Z,95.02
2018-11-14T09:43:16.934Z,94.87
2018-11-14T09:44:16.917Z,95.18
2018-11-14T09:45:16.900Z,94.82
2018-11-14T09:46:16.889Z,94.31
2018-11-14T09:47:16.880Z,94.06
2018-11-14T09:48:16.921Z,93.75
2018-11-14T09:49:16.935Z,94.17
2018-11-14T09:50:16.846Z,94.27
2018-11-14T09:51:16.834Z,94.06
2018-11-14T09:52:16.823Z,94.47
2018-11-14T09:53:16.907Z,93.85
2018-11-14T09:54:16.837Z,94.32
2018-11-14T09:55:16.794Z,93.81
2018-11-14T09:56:16.783Z,93.19
2018-11-14T09:57:16.770Z,92.99
2018-11-14T09:58:16.773Z,93.71
2018-11-14T09:59:16.755Z,93.19
2018-11-14T10:00:16.767Z,93.13
2018-11-14T10:01:16.726Z,93.65
2018-11-14T10:02:16.716Z,94.06
2018-11-14T10:03:16.716Z,93.96
2018-11-14T10:04:16.702Z,93.96
2018-11-14T10:05:16.685Z,94.43
2018-11-14T10:06:16.698Z,94.43
2018-11-14T10:07:16.662Z,94.02
2018-11-14T10:08:16.665Z,94.02
2018-11-14T10:09:16.639Z,93.91
2018-11-14T10:10:16.631Z,92.57
2018-11-14T10:11:16.667Z,92.47
2018-11-14T10:12:16.629Z,92.22
2018-11-14T10:13:16.633Z,92.43
2018-11-14T10:14:16.586Z,93.15
2018-11-14T10:15:16.579Z,93.66
2018-11-14T10:16:16.573Z,93.77
2018-11-14T10:17:16.588Z,94.08
2018-11-14T10:18:16.633Z,94.13
2018-11-14T10:19:16.537Z,92.43
2018-11-14T10:20:16.521Z,92.22
2018-11-14T10:21:16.631Z,92.78
2018-11-14T10:22:16.500Z,92.99
2018-11-14T10:23:16.545Z,94.08
2018-11-14T10:24:16.480Z,93.15
2018-11-14T10:25:16.468Z,94.49
2018-11-14T10:26:16.461Z,94.18
2018-11-14T10:27:16.453Z,94.28
2018-11-14T10:28:16.451Z,93.46
2018-11-14T10:29:16.470Z,93.56
2018-11-14T10:30:16.429Z,93.66
2018-11-14T10:31:16.402Z,93.46
2018-11-14T10:32:16.394Z,94.38
2018-11-14T10:33:16.400Z,94.18
2018-11-14T10:34:16.372Z,93.93
2018-11-14T10:35:16.486Z,93.56
2018-11-14T10:36:16.352Z,92.38
2018-11-14T10:37:16.341Z,92.59
2018-11-14T10:38:16.343Z,92.49
2018-11-14T10:39:16.319Z,93.93
2018-11-14T10:40:16.308Z,95.06
2018-11-14T10:41:16.379Z,94.60
2018-11-14T10:42:16.285Z,93.27
2018-11-14T10:43:16.293Z,92.34
2018-11-14T10:44:16.266Z,91.93
2018-11-14T10:45:16.258Z,91.62
2018-11-14T10:46:16.243Z,92.76
2018-11-14T10:47:16.288Z,92.65
2018-11-14T10:48:16.249Z,93.11
2018-11-14T10:49:16.213Z,92.76
2018-11-14T10:50:16.202Z,93.88
2018-11-14T10:51:16.190Z,93.48
2018-11-14T10:52:16.179Z,92.82
2018-11-14T10:53:16.197Z,92.40
2018-11-14T10:54:16.173Z,92.10
2018-11-14T10:55:16.151Z,91.58
2018-11-14T10:56:16.138Z,92.92
2018-11-14T10:57:16.127Z,93.43
2018-11-14T10:58:16.175Z,92.10
2018-11-14T10:59:16.173Z,92.24
2018-11-14T11:00:16.093Z,92.24
2018-11-14T11:01:16.083Z,92.14
2018-11-14T11:02:16.083Z,92.69
2018-11-14T11:03:16.067Z,92.38
2018-11-14T11:04:16.080Z,92.90
2018-11-14T11:05:16.039Z,93.98
2018-11-14T11:06:16.074Z,93.83
2018-11-14T11:07:16.022Z,94.03
2018-11-14T11:08:16.205Z,94.96
2018-11-14T11:09:16.013Z,94.34
2018-11-14T11:10:15.994Z,94.59
2018-11-14T11:11:15.974Z,95.37
2018-11-14T11:12:16.028Z,94.96
2018-11-14T11:13:15.964Z,94.34
2018-11-14T11:14:15.955Z,94.03
2018-11-14T11:15:15.932Z,93.93
2018-11-14T11:16:15.922Z,93.93
2018-11-14T11:17:15.917Z,94.38
2018-11-14T11:18:15.937Z,94.08
2018-11-14T11:19:15.900Z,94.38
2018-11-14T11:20:15.878Z,94.59
2018-11-14T11:21:15.869Z,94.55
2018-11-14T11:22:15.856Z,95.31
2018-11-14T11:23:15.856Z,94.85
2018-11-14T11:24:15.878Z,94.65
2018-11-14T11:25:15.824Z,94.13
2018-11-14T11:26:15.813Z,94.24
2018-11-14T11:27:15.803Z,94.34
2018-11-14T11:28:15.800Z,94.81
2018-11-14T11:29:15.815Z,94.15
2018-11-14T11:30:15.801Z,92.82
2018-11-14T11:31:15.769Z,94.21
2018-11-14T11:32:15.748Z,93.86
2018-11-14T11:33:15.745Z,93.55
2018-11-14T11:34:15.727Z,91.80
2018-11-14T11:35:15.743Z,91.95
2018-11-14T11:36:15.734Z,92.30
2018-11-14T11:37:15.696Z,93.74
2018-11-14T11:38:15.771Z,93.80
2018-11-14T11:39:15.697Z,92.97
2018-11-14T11:40:15.677Z,92.40
2018-11-14T11:41:15.709Z,93.39
2018-11-14T11:42:15.668Z,92.36
2018-11-14T11:43:15.649Z,92.36
2018-11-14T11:44:15.655Z,93.35
2018-11-14T11:45:15.748Z,94.37
2018-11-14T11:46:15.597Z,93.30
2018-11-14T11:47:15.588Z,91.45
2018-11-14T11:48:15.578Z,92.07
2018-11-14T11:49:15.769Z,91.76
2018-11-14T11:50:15.567Z,91.80
2018-11-14T11:51:15.718Z,91.76
2018-11-14T11:52:15.533Z,92.79
2018-11-14T11:53:15.635Z,92.17
2018-11-14T11:54:15.512Z,91.66
2018-11-14T11:55:15.918Z,92.48
2018-11-14T11:56:15.494Z,91.86
2018-11-14T11:57:15.496Z,91.14
2018-11-14T11:58:15.498Z,91.66
2018-11-14T11:59:15.509Z,91.55
2018-11-14T12:00:15.574Z,91.45
2018-11-14T12:01:15.470Z,92.17
2018-11-14T12:02:15.534Z,92.99
2018-11-14T12:03:15.448Z,92.27
2018-11-14T12:04:15.405Z,92.85
2018-11-14T12:05:15.410Z,91.51
2018-11-14T12:06:15.568Z,92.60
2018-11-14T12:07:15.373Z,91.78
2018-11-14T12:08:15.363Z,91.99
2018-11-14T12:09:15.354Z,91.42
2018-11-14T12:10:15.358Z,92.21
2018-11-14T12:11:15.330Z,90.36
2018-11-14T12:12:15.364Z,88.96
2018-11-14T12:13:15.345Z,90.30
2018-11-14T12:14:15.305Z,90.67
2018-11-14T12:15:15.305Z,90.05
2018-11-14T12:16:15.317Z,90.16
2018-11-14T12:17:15.267Z,90.36
2018-11-14T12:18:15.257Z,90.46
2018-11-14T12:19:15.371Z,90.30
2018-11-14T12:20:15.251Z,90.34
2018-11-14T12:21:15.228Z,92.08
2018-11-14T12:22:15.215Z,89.83
2018-11-14T12:23:15.208Z,90.75
2018-11-14T12:24:15.191Z,91.61
2018-11-14T12:25:15.227Z,92.08
2018-11-14T12:26:15.172Z,90.80
2018-11-14T12:27:15.201Z,91.41
2018-11-14T12:28:15.152Z,92.03
2018-11-14T12:29:15.140Z,93.26
2018-11-14T12:30:15.171Z,92.13
2018-11-14T12:31:15.368Z,91.61
2018-11-14T12:32:15.107Z,91.41
2018-11-14T12:33:15.099Z,91.93
2018-11-14T12:34:15.086Z,92.23
2018-11-14T12:35:15.164Z,92.23
2018-11-14T12:36:15.065Z,91.66
2018-11-14T12:37:15.099Z,92.13
2018-11-14T12:38:15.044Z,91.76
2018-11-14T12:39:15.035Z,91.51
2018-11-14T12:40:15.039Z,91.72
2018-11-14T12:41:15.013Z,91.55
2018-11-14T12:42:15.002Z,91.80
2018-11-14T12:43:15.032Z,93.14
2018-11-14T12:44:14.978Z,94.07
2018-11-14T12:45:15.017Z,94.17
2018-11-14T12:46:14.959Z,94.27
2018-11-14T12:47:14.951Z,94.89
2018-11-14T12:48:14.937Z,94.68
2018-11-14T12:49:14.962Z,94.33
2018-11-14T12:50:14.928Z,93.57
2018-11-14T12:51:14.905Z,93.30
2018-11-14T12:52:14.893Z,92.99